Timothy Alderweireld

Scout - KV Kortrijk
3 Dec 2028
Sunday
Process

Personality

Adaptability (11) Ambition (10) Controversy (9) Loyalty (13) Pressure (3) Professionalism (16) Sportsmanship (16) Temperament (20)

Profile

Coaching Style Democratic
License Continental A
Determination 9
Man Management 5
Motivating 11
Discipline 7
Job Satisfaction
100%
Fatigue
0%
Role Scout
Wage 76.7K p/w
Contract 14.03.2029

Performance

Behaviour Good
Training Effectiveness
29%
Player Development
45%
Injury Prevention
25%
Tactical Implementation
25%

Recent Events

Attended a recruitment meeting now
Recommended a transfer target now
Recommended a transfer target now
Recommended a transfer target now
Recommended a transfer target now
Assessed a player now
Assessed a player 7d ago
Assessed a player 7d ago

Currently Monitoring

176
Player Club Status Ability Confidence Watched Last Observed Latest Vote
Ryan McAidoo Oldham Athletic Active 126 / 134 40% 6 02.12.2028 -
Lisandro Piñero Banfield Active 133 / 131 40% 2 02.12.2028 -
Toivo Mero De Graafschap Active 113 / 114 40% 3 02.12.2028 -
Santiago Cuellar Central Norte Active 90 / 91 40% 2 01.12.2028 -
Tahiel Peralta Racing Club Active 104 / 117 40% 2 01.12.2028 -
Aytor Herrera Mineros de Guayana Active 91 / 94 40% 1 01.12.2028 -
Honest Ahanor Atalanta Active 143 / 146 40% 5 29.11.2028 -
Gideon Manaseh Ikorodu City Active 94 / 99 40% 2 29.11.2028 -
Lautaro Díaz San Martín Active 84 / 97 40% 1 29.11.2028 -
Nupe Godstime Bayelsa United Active 96 / 96 40% 2 25.11.2028 -
Ibrahim Mbaye Queens Park Rangers Active 142 / 148 40% 2 25.11.2028 -
Lucas Jetten MC Alger Active 126 / 129 40% 1 25.11.2028 -
Kiani Inge Groningen Active 120 / 122 40% 7 23.11.2028 -
Austine Odongo Shabana Active 85 / 87 40% 2 23.11.2028 -
Peyton Miller New England Revolution Active 115 / 120 40% 1 23.11.2028 -
Jan Bürger Northampton Town Active 119 / 128 40% 7 21.11.2028 -
Joseph Abah Remo Stars Active 89 / 94 40% 3 21.11.2028 -
Aarón Ochoa Málaga Active 123 / 128 40% 1 21.11.2028 -
Romelle Donovan Brentford Active 137 / 139 40% 2 19.11.2028 -
Valentino Huertas Morón Active 104 / 107 40% 4 19.11.2028 -
Benjamín Villarruel Chikhura Active 85 / 91 40% 1 19.11.2028 -
Lionel Jara Central Córdoba SdE Active 101 / 101 40% 3 17.11.2028 -
Franco Mastantuono Córdoba Active 143 / 149 40% 1 17.11.2028 -
Idrissa Sabaly Valenciennes Active 112 / 113 40% 1 17.11.2028 -
Ayanda Tibe Gor Mahia Active 89 / 95 40% 1 06.11.2028 -
Mateo Lizondo Colón Active 105 / 99 40% 1 06.11.2028 -
Luis Otávio Orlando City Active 102 / 125 40% 4 04.11.2028 -
Yusuf Abdulmumini Katsina United Active 78 / 88 40% 2 04.11.2028 -
Dro Monaco Active 139 / 145 40% 3 04.11.2028 -
Ryan Kavuma-McQueen Accrington Stanley Active 122 / 129 40% 9 03.11.2028 -
Celías Ingenthron Platense Active 105 / 125 40% 1 03.11.2028 -
Emmanuel Ndubueze Shooting Stars Active 98 / 99 40% 1 03.11.2028 -
Musa Malik Ikorodu City Active 91 / 98 40% 2 31.10.2028 -
Mateo Faure BATE Active 100 / 97 40% 3 29.10.2028 -
Harry Gray Harrogate Town Active 141 / 137 40% 1 29.10.2028 -
Luka Andrade Montevideo City Torque Active 117 / 113 40% 2 25.10.2028 -
Kgaogelo Monanyane AFC Leopards Active 86 / 91 40% 2 25.10.2028 -
Guy Noël Zohouri Le Havre AC Active 125 / 135 40% 1 22.10.2028 -
Paolo Dorini Estudiantes de Merida Active 93 / 94 40% 1 21.10.2028 -
Harrison Armstrong Ipswich Town Active 133 / 142 40% 1 21.10.2028 -
Ayyoub Bouaddi Stoke City Active 157 / 157 40% 2 19.10.2028 -
Pablo Lago Juventud Active 115 / 109 40% 2 19.10.2028 -
Christ Wawa Gefle Active 99 / 106 40% 2 18.10.2028 -
Michel Maillard Chamois Niortais Active 91 / 106 40% 1 18.10.2028 -
Julián Bragado Morón Active 81 / 90 40% 4 17.10.2028 -
Alex Verón Vélez Active 130 / 123 40% 2 16.10.2028 -
Tiago Gordillo San Miguel Active 93 / 93 40% 1 13.10.2028 -
Santiago Segovia Rosario Central Active 115 / 120 40% 1 12.10.2028 -
Julian Hall Real Salt Lake Active 120 / 118 40% 1 11.10.2028 -
Gustavo Lozano Metropolitanos Active 100 / 100 40% 1 11.10.2028 -
Julian Oerip AZ Active 126 / 127 40% 1 10.10.2028 -
Estanislao López Colón Active 105 / 100 40% 1 08.10.2028 -
Casian Soare Arsenal Dzerzhinsk Active 89 / 83 40% 1 06.10.2028 -
Matías Salgado Central Norte Active 71 / 88 40% 1 05.10.2028 -
Chimobi Igwilo Rangers International Active 83 / 94 40% 2 04.10.2028 -
Joel Ezra Enyimba Active 92 / 105 40% 2 03.10.2028 -
Markus Wæhler Lillestrom Active 114 / 118 40% 1 02.10.2028 -
Louis Bostyn Zulte Waregem Negotiating 122 / 115 65% 1 14.08.2028 Approve
Tibe De Vlieger KAA Gent Negotiating 109 / 115 65% 1 10.07.2028 -
Nathan Mbala FC Metz Active 106 / 113 40% 9 20.06.2028 -
Jake Evans Crewe Alexandra Active 111 / 126 40% 2 20.06.2028 -
Abubakar Adams Aduana Stars Active 82 / 87 40% 2 06.06.2028 -
Maël Monyebe Gazelle Garoua Active 75 / 86 40% 1 02.06.2028 -
Lucas Høgsberg RC Strasbourg Active 144 / 145 40% 8 31.05.2028 -
Andrija Bulatović Chamois Niortais Active 121 / 133 40% 6 29.05.2028 -
Ben Broggio Mansfield Town Active 109 / 113 40% 4 29.05.2028 -
Tyler Fletcher Rotherham United Active 109 / 119 40% 4 27.05.2028 -
Jorthy Mokio ADO Den Haag Active 129 / 137 40% 2 24.05.2028 -
Shea Lacey Crystal Palace Active 135 / 135 40% 3 24.05.2028 -
Nana Nuhu WAFA Active 89 / 97 40% 5 23.05.2028 -
Oskar Pietuszewski Estrela da Amadora Active 138 / 136 40% 2 23.05.2028 -
Louka Vanderbruggen De Graafschap Active 102 / 114 40% 3 22.05.2028 -
Gabriel Mec Feirense Active 123 / 130 40% 3 22.05.2028 -
Ibrahim Fullah Charlton Athletic Active 121 / 124 40% 3 21.05.2028 -
Babis Kostoulas Oxford United Active 141 / 150 40% 4 19.05.2028 -
Oumar Camara Vitoria Guimaraes Active 128 / 132 40% 2 19.05.2028 -
Igor Tyjon Barrow AFC Active 111 / 123 40% 2 18.05.2028 -
Noah Mokhtari Stade Brestois Active 106 / 106 40% 1 18.05.2028 -
Thijs Kraaijeveld USM Alger Active 126 / 126 40% 2 17.05.2028 -
Christos Mouzakitis Hull City Active 134 / 144 40% 2 17.05.2028 -
Mamoutou Berthé US Bougouba Active 98 / 108 40% 4 16.05.2028 -
Henrique Carmo Sochi Active 137 / 132 40% 2 16.05.2028 -
Giovanni Cantizano Fulham Active 123 / 126 40% 2 14.05.2028 -
Edison Gruezo Guadalajara Active 97 / 113 40% 1 12.05.2028 -
Rémi Himbert AC Ajaccio Active 112 / 122 40% 4 11.05.2028 -
Sam Amo-Ameyaw RC Strasbourg Active 134 / 138 40% 4 11.05.2028 -
Eli Junior Kroupi Bournemouth Active 143 / 151 40% 4 10.05.2028 -
Alphadjo Cissé Lecce Active 139 / 133 40% 1 10.05.2028 -
Rio Ngumoha Plymouth Argyle Active 149 / 148 40% 3 08.05.2028 -
Kerim Alajbegović Modena Active 138 / 137 40% 1 04.05.2028 -
Fletcher Boyd Accrington Stanley Active 108 / 111 40% 4 02.05.2028 -
Kylian Kouakou Valenciennes Active 90 / 101 40% 1 02.05.2028 -
Luca Meirelles Kudrivka Active 118 / 132 40% 5 30.04.2028 -
Eduardo Fernandes Benfica Active 120 / 122 40% 3 30.04.2028 -
Trey Nyoni Rotherham United Active 141 / 147 40% 3 30.04.2028 -
Mateus Mané Burnley Active 137 / 148 40% 2 26.04.2028 -
Omar Khedr Gillingham Active 110 / 118 40% 3 24.04.2028 -
Matyáš Havelka Utrecht Active 101 / 114 40% 1 22.04.2028 -
İsak Vural Audace Cerignola Active 113 / 123 40% 1 18.04.2028 -
Siyabonga Mabena Bidvest Wits Active 128 / 128 40% 6 16.04.2028 -
Sindre Walle Egeli Udinese Active 140 / 141 40% 5 15.04.2028 -
Luca Williams-Barnett Walsall Active 120 / 129 40% 4 15.04.2028 -
Kwandile Gumemde US Bougouni Active 80 / 90 40% 1 30.03.2028 -
Oscar Schwartau Norwich City Active 131 / 134 40% 2 28.03.2028 -
Josh Nichols Oldham Athletic Active 122 / 127 40% 1 24.03.2028 -
Gabe Forsyth Colchester United Active 106 / 116 40% 1 18.03.2028 -
Nathan Doualla Canon Yaounde Active 95 / 100 40% 1 17.03.2028 -
Adame Laidouni Gzira United Active 81 / 93 40% 1 16.02.2028 -
Josh Acheampong Everton Active 143 / 150 40% 1 12.02.2028 -
Gomolemo Kekana Maritzburg United Active 111 / 118 40% 1 09.02.2028 -
Ruben Ramos LA Galaxy Active 87 / 106 40% 1 08.02.2028 -
Luighi Palmeiras Active 104 / 110 40% 1 07.02.2028 -
Archie Gray Southampton Active 152 / 157 40% 2 31.01.2028 -
Aboubacar Meïté Afrique Foot Elite Active 88 / 94 40% 1 31.01.2028 -
Victor Hernandez Santa Fe Active 133 / 122 40% 1 17.01.2028 -
Louis Leroux FC Nantes Active 128 / 138 40% 1 17.01.2028 -
Mao Hosoya Santos Active 134 / 135 67% 1 01.01.2028 Approve
Matěj Ryneš AS Nancy Active 122 / 123 67% 1 01.01.2028 Approve
Matias Siltanen Malmo FF Negotiating 138 / 129 40% 1 31.12.2027 -
Francisco Machis Llaneros Active 92 / 88 40% 1 31.12.2027 -
Idris Ajiya Nasarawa United Active 80 / 93 40% 1 30.08.2027 -
Lucas Camejo River Plate Active 100 / 86 40% 1 30.08.2027 -
Diosmer Pacheco Mineros de Guayana Active 92 / 91 40% 1 30.08.2027 -
Nicolás Barros Schelotto Gimnasia La Plata Active 128 / 136 40% 1 25.08.2027 -
Arsene Mekila Gazelle Garoua Active 90 / 89 40% 1 25.08.2027 -
Abubakar Garba Nasarawa United Active 90 / 98 40% 1 10.08.2027 -
Borna Knezović Casarano Active 105 / 111 40% 1 28.06.2027 -
Sampson Dweh Mallorca Active 133 / 134 66% 1 01.06.2027 Approve
Johannes Eggestein Orlando City Active 125 / 125 68% 1 01.06.2027 Approve
Sylvester Jasper Standard Liege Active 126 / 121 40% 1 31.12.2026 -
Scott Twine Bristol City Active 133 / 117 40% 1 31.12.2026 -
Aimé Omgba KAA Gent Active 126 / 117 40% 1 29.12.2026 -
Oswin Appollis Orlando Pirates Active 121 / 123 40% 2 28.12.2026 -
Jack Rudoni Coventry City Active 141 / 136 40% 2 26.12.2026 -
Thibaud Verlinden OH Leuven Active 119 / 119 40% 1 26.12.2026 -
Peter Federico Gornik Zabrze Active 110 / 121 40% 2 17.12.2026 -
Wilson Isidor Sunderland Active 135 / 129 40% 1 17.12.2026 -
Ilyas Ansah Hull City Active 134 / 128 40% 1 16.12.2026 -
Tiago Araújo KAA Gent Active 130 / 117 40% 1 13.12.2026 -
Tommy St. Jago KV Mechelen Active 121 / 119 40% 1 13.12.2026 -
Finn Azaz Southampton Active 128 / 124 40% 1 12.12.2026 -
Cheick Doucouré Crystal Palace Active 137 / 136 40% 1 11.12.2026 -
Adam Randell Bristol City Active 121 / 129 40% 1 10.12.2026 -
Max Johnston Derby County Active 119 / 129 40% 1 08.12.2026 -
Juan Bisanz Huracán Active 119 / 129 40% 1 08.12.2026 -
Japhet Tanganga Sheffield United Active 125 / 134 40% 1 08.12.2026 -
Isaiah Jones Luton Town Active 131 / 124 40% 1 04.12.2026 -
Jason Knight Bristol City Active 137 / 127 40% 1 04.12.2026 -
Tomáš Rigo Stoke City Active 122 / 124 40% 1 03.12.2026 -
Tyler Goodrham Oxford United Active 124 / 124 40% 1 03.12.2026 -
Alex Robertson Cardiff City Active 127 / 117 40% 1 30.11.2026 -
Kyriani Sabbe Club Brugge Active 109 / 129 40% 1 26.11.2026 -
Pedro Porro Tottenham Active 155 / 140 40% 1 18.11.2026 -
Jeppe Erenbjerg Racing Genk Active 130 / 120 40% 1 15.11.2026 -
Alan Lescano Argentinos Juniors Active 145 / 129 40% 1 14.11.2026 -
Mario Stroeykens Anderlecht Active 136 / 128 40% 3 12.11.2026 -
Tyrhys Dolan Espanyol Active 141 / 144 40% 1 12.11.2026 -
Marcelo Allende Mamelodi Sundowns Active 134 / 134 40% 1 07.11.2026 -
Matt O'Riley Brighton Active 143 / 150 40% 1 06.11.2026 -
Jesus Ferreira Seattle Sounders Active 125 / 138 40% 1 06.11.2026 -
Carlos Forbs Club Brugge Active 122 / 126 40% 1 04.11.2026 -
Alexis Cuello San Lorenzo Active 111 / 129 40% 1 02.11.2026 -
Brooke Norton-Cuffy Hull City Active 131 / 144 40% 1 02.11.2026 -
Ewoud Pletinckx OH Leuven Active 130 / 119 40% 1 02.11.2026 -
Junior Onana Ludogorets Active 115 / 113 40% 1 30.10.2026 -
Ramiro Ruiz Rodríguez Atlético Tucumán Active 120 / 109 40% 1 30.10.2026 -
Max Bird Birmingham Active 122 / 136 40% 1 25.10.2026 -
Marcus Edwards Burnley Active 138 / 138 40% 1 24.10.2026 -
Manu Morlanes Mallorca Active 145 / 130 40% 1 17.10.2026 -
Joaquin Seys Club Brugge Active 136 / 129 40% 1 16.10.2026 -
Ilias Sebaoui Sint-Truiden Active 134 / 130 40% 1 16.10.2026 -
Bradley Zwane SuperSport United Active 123 / 113 40% 1 15.10.2026 -
Telasco Segovia Inter Miami CF Active 114 / 123 40% 1 09.10.2026 -
Freddie Potts Club Brugge Active 137 / 127 40% 1 09.10.2026 -
Kevin Amaro Racing Genk Active 128 / 122 40% 1 07.10.2026 -
Alhassan Yusuf New England Revolution Active 121 / 117 40% 1 07.10.2026 -